Modesto City Co-Harry Sham Field
KMOD : now visible

Airfield :











YOU CAN JOIN US ON...

 
LOGIN :

Register | Disclaimer

   EN    FR    IT 

 









Legend :    VFR   Marginal VFR   IFR   Intensive IFR   Very Intensive IFR
Visi :
Ceiling :
>= 8 km
>= 3000ft
5 to 8 km
1000 to 3000 ft
1500m to 5 km
500 to 1000 ft
800 to 1500m
200 to 500 ft
< 800m
< 200 ft
Symbols :   Thunderstorms  Fog  Heavy snow  Heavy precipitations  Wind > 20 kt






- Airport Elevation : 97 ft
- IATA code : MOD


KMOD - Modesto City Co-Harry Sham Field

CURRENT METAR :
  • 231453Z 30011KT 10SM CLR 18/02 A2987 RMK AO2 SLP114 T01780022 53009

EXPIRED METARs :
  • 231353Z AUTO 31009KT 10SM CLR 16/03 A2985 RMK AO2 SLP108 T01560028
  • 231253Z AUTO 32007KT 10SM CLR 14/04 A2985 RMK AO2 SLP105 T01440039
  • 231153Z AUTO 32009KT 10SM CLR 16/04 A2984 RMK AO2 SLP105 T01560044 10206 20144 53003
  • 231053Z AUTO 32006KT 10SM CLR 15/06 A2984 RMK AO2 SLP104 T01500056

TAF KMOD
Valid from the 23 at 12:00 until the 24 at 12:00 UTC


231126Z 2312/2412 32008KT P6SM SKC
FM231500 32011KT P6SM SKC
FM240500 VRB05KT P6SM SKC
KZOA FIR / North America



MET'MAP, your aeronautical weather chart ! - Copyright ORBIFLY December 2007 - Disclaimer

ORBIFLY MET'MAP TEAM :

Programming & Development : Alexandra Zaïnal
Original concept : Baudouin d'Aumeries
Technical & hardware support : Manuel Goepfert
Assistance : Marc-Olivier Méhu




SOURCES & CREDITS :

   NOAA       Earth
Advisory